sensor_id;sensor_type;location;lat;lon;timestamp;temperature;humidity
49042;DHT22;34859;51.608;11.462;2022-07-29T00:01:16;13.50;99.90
49042;DHT22;34859;51.608;11.462;2022-07-29T00:04:00;13.50;99.90
49042;DHT22;34859;51.608;11.462;2022-07-29T00:06:44;13.60;99.90
49042;DHT22;34859;51.608;11.462;2022-07-29T00:09:29;13.60;99.90
49042;DHT22;34859;51.608;11.462;2022-07-29T00:12:10;13.60;99.90
49042;DHT22;34859;51.608;11.462;2022-07-29T00:14:55;13.60;99.90
49042;DHT22;34859;51.608;11.462;2022-07-29T00:17:39;13.50;99.90
49042;DHT22;34859;51.608;11.462;2022-07-29T00:20:23;13.40;99.90
49042;DHT22;34859;51.608;11.462;2022-07-29T00:23:07;13.40;99.90
49042;DHT22;34859;51.608;11.462;2022-07-29T00:25:51;13.50;99.90
49042;DHT22;34859;51.608;11.462;2022-07-29T00:28:32;13.50;99.90
49042;DHT22;34859;51.608;11.462;2022-07-29T00:31:16;13.60;99.90
49042;DHT22;34859;51.608;11.462;2022-07-29T00:34:00;13.60;99.90
49042;DHT22;34859;51.608;11.462;2022-07-29T00:36:44;13.60;99.90
49042;DHT22;34859;51.608;11.462;2022-07-29T00:39:29;13.60;99.90
49042;DHT22;34859;51.608;11.462;2022-07-29T00:42:14;13.60;99.90
49042;DHT22;34859;51.608;11.462;2022-07-29T00:44:58;13.50;99.90
49042;DHT22;34859;51.608;11.462;2022-07-29T00:47:42;13.50;99.90
49042;DHT22;34859;51.608;11.462;2022-07-29T00:50:26;13.50;99.90
49042;DHT22;34859;51.608;11.462;2022-07-29T00:53:12;13.50;99.90
49042;DHT22;34859;51.608;11.462;2022-07-29T00:55:57;13.60;99.90
49042;DHT22;34859;51.608;11.462;2022-07-29T00:58:41;13.60;99.90
49042;DHT22;34859;51.608;11.462;2022-07-29T01:01:23;13.50;99.90
49042;DHT22;34859;51.608;11.462;2022-07-29T01:04:06;13.60;99.90
49042;DHT22;34859;51.608;11.462;2022-07-29T01:06:50;13.60;99.90
49042;DHT22;34859;51.608;11.462;2022-07-29T01:09:33;13.60;99.90
49042;DHT22;34859;51.608;11.462;2022-07-29T01:12:22;13.60;99.90
49042;DHT22;34859;51.608;11.462;2022-07-29T01:15:06;13.60;99.90
49042;DHT22;34859;51.608;11.462;2022-07-29T01:18:06;13.70;99.90
49042;DHT22;34859;51.608;11.462;2022-07-29T01:29:45;13.60;99.90
49042;DHT22;34859;51.608;11.462;2022-07-29T01:32:36;13.70;99.90
49042;DHT22;34859;51.608;11.462;2022-07-29T01:35:26;13.60;99.90
49042;DHT22;34859;51.608;11.462;2022-07-29T01:38:19;13.70;99.90
49042;DHT22;34859;51.608;11.462;2022-07-29T01:41:15;13.70;99.90
49042;DHT22;34859;51.608;11.462;2022-07-29T01:44:01;13.80;99.90
49042;DHT22;34859;51.608;11.462;2022-07-29T01:46:53;13.70;99.90
49042;DHT22;34859;51.608;11.462;2022-07-29T01:49:51;13.70;99.90
49042;DHT22;34859;51.608;11.462;2022-07-29T01:52:38;13.70;99.90
49042;DHT22;34859;51.608;11.462;2022-07-29T01:55:22;13.60;99.90
49042;DHT22;34859;51.608;11.462;2022-07-29T01:58:10;13.50;99.90
49042;DHT22;34859;51.608;11.462;2022-07-29T02:00:57;13.50;99.90
49042;DHT22;34859;51.608;11.462;2022-07-29T02:03:44;13.50;99.90
49042;DHT22;34859;51.608;11.462;2022-07-29T02:06:26;13.50;99.90
49042;DHT22;34859;51.608;11.462;2022-07-29T02:09:12;13.60;99.90
49042;DHT22;34859;51.608;11.462;2022-07-29T02:11:59;13.70;99.90
49042;DHT22;34859;51.608;11.462;2022-07-29T02:14:51;13.70;99.90
49042;DHT22;34859;51.608;11.462;2022-07-29T02:17:46;13.80;99.90
49042;DHT22;34859;51.608;11.462;2022-07-29T02:20:33;13.80;99.90
49042;DHT22;34859;51.608;11.462;2022-07-29T02:23:20;13.70;99.90
49042;DHT22;34859;51.608;11.462;2022-07-29T02:26:06;13.80;99.90
49042;DHT22;34859;51.608;11.462;2022-07-29T02:28:53;13.70;99.90
49042;DHT22;34859;51.608;11.462;2022-07-29T02:31:39;13.70;99.90
49042;DHT22;34859;51.608;11.462;2022-07-29T02:34:24;13.60;99.90
49042;DHT22;34859;51.608;11.462;2022-07-29T02:37:10;13.60;99.90
49042;DHT22;34859;51.608;11.462;2022-07-29T02:39:56;13.60;99.90
49042;DHT22;34859;51.608;11.462;2022-07-29T02:42:42;13.50;99.90
49042;DHT22;34859;51.608;11.462;2022-07-29T02:45:28;13.50;99.90
49042;DHT22;34859;51.608;11.462;2022-07-29T02:48:13;13.50;99.90
49042;DHT22;34859;51.608;11.462;2022-07-29T02:51:06;13.50;99.90
49042;DHT22;34859;51.608;11.462;2022-07-29T02:53:53;13.60;99.90
49042;DHT22;34859;51.608;11.462;2022-07-29T02:56:39;13.60;99.90
49042;DHT22;34859;51.608;11.462;2022-07-29T02:59:26;13.50;99.90
49042;DHT22;34859;51.608;11.462;2022-07-29T03:02:08;13.60;99.90
49042;DHT22;34859;51.608;11.462;2022-07-29T03:04:54;13.60;99.90
49042;DHT22;34859;51.608;11.462;2022-07-29T03:07:40;13.60;99.90
49042;DHT22;34859;51.608;11.462;2022-07-29T03:10:28;13.70;99.90
49042;DHT22;34859;51.608;11.462;2022-07-29T03:13:10;13.60;99.90
49042;DHT22;34859;51.608;11.462;2022-07-29T03:15:57;13.50;99.90
49042;DHT22;34859;51.608;11.462;2022-07-29T03:18:39;13.50;99.90
49042;DHT22;34859;51.608;11.462;2022-07-29T03:21:23;13.40;99.90
49042;DHT22;34859;51.608;11.462;2022-07-29T03:24:07;13.40;99.90
49042;DHT22;34859;51.608;11.462;2022-07-29T03:26:51;13.40;99.90
49042;DHT22;34859;51.608;11.462;2022-07-29T03:29:36;13.40;99.90
49042;DHT22;34859;51.608;11.462;2022-07-29T03:32:20;13.40;99.90
49042;DHT22;34859;51.608;11.462;2022-07-29T03:35:04;13.50;99.90
49042;DHT22;34859;51.608;11.462;2022-07-29T03:37:49;13.60;99.90
49042;DHT22;34859;51.608;11.462;2022-07-29T03:40:38;13.60;99.90
49042;DHT22;34859;51.608;11.462;2022-07-29T03:43:26;13.60;99.90
49042;DHT22;34859;51.608;11.462;2022-07-29T03:46:16;13.70;99.90
49042;DHT22;34859;51.608;11.462;2022-07-29T03:49:03;13.60;99.90
49042;DHT22;34859;51.608;11.462;2022-07-29T03:51:48;13.60;99.90
49042;DHT22;34859;51.608;11.462;2022-07-29T03:54:32;13.60;99.90
49042;DHT22;34859;51.608;11.462;2022-07-29T03:57:18;13.60;99.90
49042;DHT22;34859;51.608;11.462;2022-07-29T04:00:04;13.70;99.90
49042;DHT22;34859;51.608;11.462;2022-07-29T04:02:49;13.60;99.90
49042;DHT22;34859;51.608;11.462;2022-07-29T04:05:33;13.60;99.90
49042;DHT22;34859;51.608;11.462;2022-07-29T04:08:14;13.60;99.90
49042;DHT22;34859;51.608;11.462;2022-07-29T04:10:59;13.60;99.90
49042;DHT22;34859;51.608;11.462;2022-07-29T04:13:44;13.60;99.90
49042;DHT22;34859;51.608;11.462;2022-07-29T04:16:25;13.60;99.90
49042;DHT22;34859;51.608;11.462;2022-07-29T04:19:09;13.60;99.90
49042;DHT22;34859;51.608;11.462;2022-07-29T04:21:53;13.70;99.90
49042;DHT22;34859;51.608;11.462;2022-07-29T04:24:37;13.70;99.90
49042;DHT22;34859;51.608;11.462;2022-07-29T04:27:21;13.70;99.90
49042;DHT22;34859;51.608;11.462;2022-07-29T04:30:06;13.80;99.90
49042;DHT22;34859;51.608;11.462;2022-07-29T04:32:50;13.80;99.90
49042;DHT22;34859;51.608;11.462;2022-07-29T04:35:38;13.90;99.90
49042;DHT22;34859;51.608;11.462;2022-07-29T04:38:23;13.90;99.90
49042;DHT22;34859;51.608;11.462;2022-07-29T04:41:07;13.90;99.90
49042;DHT22;34859;51.608;11.462;2022-07-29T04:43:52;14.00;99.90
49042;DHT22;34859;51.608;11.462;2022-07-29T04:46:36;14.00;99.90
49042;DHT22;34859;51.608;11.462;2022-07-29T04:49:20;14.10;99.90
49042;DHT22;34859;51.608;11.462;2022-07-29T04:52:01;14.10;99.90
49042;DHT22;34859;51.608;11.462;2022-07-29T04:54:45;14.20;99.90
49042;DHT22;34859;51.608;11.462;2022-07-29T04:57:30;14.30;99.90
49042;DHT22;34859;51.608;11.462;2022-07-29T05:00:14;14.30;99.90
49042;DHT22;34859;51.608;11.462;2022-07-29T05:02:58;14.40;99.90
49042;DHT22;34859;51.608;11.462;2022-07-29T05:05:42;14.40;99.90
49042;DHT22;34859;51.608;11.462;2022-07-29T05:08:24;14.40;99.90
49042;DHT22;34859;51.608;11.462;2022-07-29T05:11:08;14.50;99.90
49042;DHT22;34859;51.608;11.462;2022-07-29T05:13:49;14.60;99.90
49042;DHT22;34859;51.608;11.462;2022-07-29T05:16:30;14.70;99.90
49042;DHT22;34859;51.608;11.462;2022-07-29T05:19:11;14.70;99.90
49042;DHT22;34859;51.608;11.462;2022-07-29T05:21:55;14.80;99.90
49042;DHT22;34859;51.608;11.462;2022-07-29T05:24:36;14.90;99.90
49042;DHT22;34859;51.608;11.462;2022-07-29T05:27:21;15.00;99.90
49042;DHT22;34859;51.608;11.462;2022-07-29T05:30:06;15.10;99.90
49042;DHT22;34859;51.608;11.462;2022-07-29T05:32:50;15.10;99.90
49042;DHT22;34859;51.608;11.462;2022-07-29T05:35:34;15.10;99.90
49042;DHT22;34859;51.608;11.462;2022-07-29T05:38:21;15.20;99.90
49042;DHT22;34859;51.608;11.462;2022-07-29T05:41:05;15.30;99.90
49042;DHT22;34859;51.608;11.462;2022-07-29T05:43:49;15.30;99.90
49042;DHT22;34859;51.608;11.462;2022-07-29T05:46:33;15.30;99.90
49042;DHT22;34859;51.608;11.462;2022-07-29T05:49:17;15.30;99.90
49042;DHT22;34859;51.608;11.462;2022-07-29T05:51:58;15.40;99.90
49042;DHT22;34859;51.608;11.462;2022-07-29T05:54:39;15.50;99.90
49042;DHT22;34859;51.608;11.462;2022-07-29T05:57:24;15.60;99.90
49042;DHT22;34859;51.608;11.462;2022-07-29T06:00:08;15.80;99.90
49042;DHT22;34859;51.608;11.462;2022-07-29T06:02:53;16.00;99.90
49042;DHT22;34859;51.608;11.462;2022-07-29T06:05:37;16.10;99.90
49042;DHT22;34859;51.608;11.462;2022-07-29T06:08:21;16.20;99.90
49042;DHT22;34859;51.608;11.462;2022-07-29T06:11:06;16.30;99.90
49042;DHT22;34859;51.608;11.462;2022-07-29T06:13:51;16.50;99.90
49042;DHT22;34859;51.608;11.462;2022-07-29T06:16:35;16.60;99.90
49042;DHT22;34859;51.608;11.462;2022-07-29T06:19:19;16.70;99.90
49042;DHT22;34859;51.608;11.462;2022-07-29T06:22:03;16.80;99.90
49042;DHT22;34859;51.608;11.462;2022-07-29T06:24:48;16.80;99.90
49042;DHT22;34859;51.608;11.462;2022-07-29T06:27:32;16.80;99.90
49042;DHT22;34859;51.608;11.462;2022-07-29T06:30:16;16.90;99.90
49042;DHT22;34859;51.608;11.462;2022-07-29T06:33:00;16.90;99.90
49042;DHT22;34859;51.608;11.462;2022-07-29T06:35:42;16.90;99.90
49042;DHT22;34859;51.608;11.462;2022-07-29T06:38:27;16.90;99.90
49042;DHT22;34859;51.608;11.462;2022-07-29T06:41:09;16.90;99.90
49042;DHT22;34859;51.608;11.462;2022-07-29T06:43:56;16.90;99.90
49042;DHT22;34859;51.608;11.462;2022-07-29T06:46:40;16.90;99.90
49042;DHT22;34859;51.608;11.462;2022-07-29T06:49:25;16.90;99.90
49042;DHT22;34859;51.608;11.462;2022-07-29T06:52:10;16.90;99.90
49042;DHT22;34859;51.608;11.462;2022-07-29T06:54:54;16.90;99.90
49042;DHT22;34859;51.608;11.462;2022-07-29T06:57:38;16.90;99.90
49042;DHT22;34859;51.608;11.462;2022-07-29T07:00:23;16.90;99.90
49042;DHT22;34859;51.608;11.462;2022-07-29T07:03:07;17.00;99.90
49042;DHT22;34859;51.608;11.462;2022-07-29T07:05:52;17.00;99.90
49042;DHT22;34859;51.608;11.462;2022-07-29T07:08:37;17.00;99.90
49042;DHT22;34859;51.608;11.462;2022-07-29T07:11:21;17.00;99.90
49042;DHT22;34859;51.608;11.462;2022-07-29T07:14:05;17.00;99.90
49042;DHT22;34859;51.608;11.462;2022-07-29T07:16:49;17.10;99.90
49042;DHT22;34859;51.608;11.462;2022-07-29T07:19:34;17.20;99.90
49042;DHT22;34859;51.608;11.462;2022-07-29T07:22:18;17.30;99.90
49042;DHT22;34859;51.608;11.462;2022-07-29T07:25:02;17.40;99.90
49042;DHT22;34859;51.608;11.462;2022-07-29T07:27:46;17.40;99.90
49042;DHT22;34859;51.608;11.462;2022-07-29T07:30:30;17.50;99.90
49042;DHT22;34859;51.608;11.462;2022-07-29T07:33:15;17.60;99.90
49042;DHT22;34859;51.608;11.462;2022-07-29T07:35:56;17.80;99.90
49042;DHT22;34859;51.608;11.462;2022-07-29T07:38:40;18.00;99.90
49042;DHT22;34859;51.608;11.462;2022-07-29T07:41:24;18.10;99.90
49042;DHT22;34859;51.608;11.462;2022-07-29T07:44:08;18.20;99.90
49042;DHT22;34859;51.608;11.462;2022-07-29T07:46:52;18.30;99.90
49042;DHT22;34859;51.608;11.462;2022-07-29T07:49:36;18.50;99.90
49042;DHT22;34859;51.608;11.462;2022-07-29T07:52:21;18.60;99.90
49042;DHT22;34859;51.608;11.462;2022-07-29T07:55:03;18.80;99.90
49042;DHT22;34859;51.608;11.462;2022-07-29T07:57:47;18.90;99.90
49042;DHT22;34859;51.608;11.462;2022-07-29T08:00:32;19.00;99.90
49042;DHT22;34859;51.608;11.462;2022-07-29T08:03:16;19.30;99.90
49042;DHT22;34859;51.608;11.462;2022-07-29T08:06:01;19.60;99.90
49042;DHT22;34859;51.608;11.462;2022-07-29T08:08:45;19.70;99.90
49042;DHT22;34859;51.608;11.462;2022-07-29T08:11:26;19.80;99.90
49042;DHT22;34859;51.608;11.462;2022-07-29T08:14:10;19.80;99.90
49042;DHT22;34859;51.608;11.462;2022-07-29T08:16:52;19.80;99.90
49042;DHT22;34859;51.608;11.462;2022-07-29T08:19:36;19.70;99.90
49042;DHT22;34859;51.608;11.462;2022-07-29T08:22:21;19.60;99.90
49042;DHT22;34859;51.608;11.462;2022-07-29T08:25:02;19.70;99.90
49042;DHT22;34859;51.608;11.462;2022-07-29T08:27:47;19.70;99.90
49042;DHT22;34859;51.608;11.462;2022-07-29T08:30:31;19.80;99.90
49042;DHT22;34859;51.608;11.462;2022-07-29T08:33:16;20.00;99.90
49042;DHT22;34859;51.608;11.462;2022-07-29T08:36:00;20.20;99.90
49042;DHT22;34859;51.608;11.462;2022-07-29T08:38:44;20.40;99.90
49042;DHT22;34859;51.608;11.462;2022-07-29T08:41:28;20.70;99.90
49042;DHT22;34859;51.608;11.462;2022-07-29T08:44:15;20.80;99.90
49042;DHT22;34859;51.608;11.462;2022-07-29T08:47:00;20.80;99.90
49042;DHT22;34859;51.608;11.462;2022-07-29T08:49:44;20.80;99.90
49042;DHT22;34859;51.608;11.462;2022-07-29T08:52:30;20.90;99.90
49042;DHT22;34859;51.608;11.462;2022-07-29T08:55:17;20.90;99.90
49042;DHT22;34859;51.608;11.462;2022-07-29T08:58:02;21.10;99.90
49042;DHT22;34859;51.608;11.462;2022-07-29T09:00:51;21.10;99.90
49042;DHT22;34859;51.608;11.462;2022-07-29T09:03:37;21.30;99.90
49042;DHT22;34859;51.608;11.462;2022-07-29T09:06:23;21.50;99.90
49042;DHT22;34859;51.608;11.462;2022-07-29T09:09:12;21.70;99.90
49042;DHT22;34859;51.608;11.462;2022-07-29T09:11:58;21.80;99.90
49042;DHT22;34859;51.608;11.462;2022-07-29T09:14:43;21.90;99.90
49042;DHT22;34859;51.608;11.462;2022-07-29T09:17:41;22.00;99.90
49042;DHT22;34859;51.608;11.462;2022-07-29T09:20:26;22.10;99.90
49042;DHT22;34859;51.608;11.462;2022-07-29T09:23:27;22.10;99.90
49042;DHT22;34859;51.608;11.462;2022-07-29T09:26:11;22.20;99.90
49042;DHT22;34859;51.608;11.462;2022-07-29T09:28:55;22.50;99.90
49042;DHT22;34859;51.608;11.462;2022-07-29T09:31:44;22.50;99.90
49042;DHT22;34859;51.608;11.462;2022-07-29T09:34:28;22.50;99.90
49042;DHT22;34859;51.608;11.462;2022-07-29T09:37:11;22.80;99.90
49042;DHT22;34859;51.608;11.462;2022-07-29T09:39:55;22.90;99.90
49042;DHT22;34859;51.608;11.462;2022-07-29T09:42:37;23.10;99.90
49042;DHT22;34859;51.608;11.462;2022-07-29T09:45:34;23.20;99.90
49042;DHT22;34859;51.608;11.462;2022-07-29T09:48:24;23.40;99.90
49042;DHT22;34859;51.608;11.462;2022-07-29T09:51:18;23.60;99.50
49042;DHT22;34859;51.608;11.462;2022-07-29T09:54:00;23.80;99.70
49042;DHT22;34859;51.608;11.462;2022-07-29T09:56:47;23.90;98.60
49042;DHT22;34859;51.608;11.462;2022-07-29T09:59:32;23.80;98.50
49042;DHT22;34859;51.608;11.462;2022-07-29T10:02:16;23.90;97.60
49042;DHT22;34859;51.608;11.462;2022-07-29T10:05:04;23.90;97.80
49042;DHT22;34859;51.608;11.462;2022-07-29T10:10:36;23.80;96.20
49042;DHT22;34859;51.608;11.462;2022-07-29T10:13:20;23.80;96.30
49042;DHT22;34859;51.608;11.462;2022-07-29T10:16:05;23.90;95.80
49042;DHT22;34859;51.608;11.462;2022-07-29T10:18:49;23.90;96.10
49042;DHT22;34859;51.608;11.462;2022-07-29T10:21:35;24.20;96.40
49042;DHT22;34859;51.608;11.462;2022-07-29T10:24:21;24.40;95.80
49042;DHT22;34859;51.608;11.462;2022-07-29T10:27:08;24.50;96.40
49042;DHT22;34859;51.608;11.462;2022-07-29T10:29:53;24.60;94.70
49042;DHT22;34859;51.608;11.462;2022-07-29T10:38:47;24.90;93.30
49042;DHT22;34859;51.608;11.462;2022-07-29T10:44:21;25.20;93.70
49042;DHT22;34859;51.608;11.462;2022-07-29T10:47:06;25.30;92.20
49042;DHT22;34859;51.608;11.462;2022-07-29T10:49:59;25.20;91.00
49042;DHT22;34859;51.608;11.462;2022-07-29T10:55:38;24.90;91.90
49042;DHT22;34859;51.608;11.462;2022-07-29T10:58:26;24.90;91.70
49042;DHT22;34859;51.608;11.462;2022-07-29T11:01:29;25.20;91.90
49042;DHT22;34859;51.608;11.462;2022-07-29T11:04:13;25.20;91.90
49042;DHT22;34859;51.608;11.462;2022-07-29T11:09:43;25.30;91.10
49042;DHT22;34859;51.608;11.462;2022-07-29T11:15:22;25.10;91.30
49042;DHT22;34859;51.608;11.462;2022-07-29T11:18:08;24.90;91.30
49042;DHT22;34859;51.608;11.462;2022-07-29T11:20:52;24.70;91.00
49042;DHT22;34859;51.608;11.462;2022-07-29T11:23:37;24.70;91.60
49042;DHT22;34859;51.608;11.462;2022-07-29T11:26:23;24.70;91.00
49042;DHT22;34859;51.608;11.462;2022-07-29T11:29:27;24.70;91.30
49042;DHT22;34859;51.608;11.462;2022-07-29T11:32:13;24.80;91.10
49042;DHT22;34859;51.608;11.462;2022-07-29T11:35:19;24.80;91.80
49042;DHT22;34859;51.608;11.462;2022-07-29T11:41:24;24.80;91.00
49042;DHT22;34859;51.608;11.462;2022-07-29T11:44:09;24.80;92.00
49042;DHT22;34859;51.608;11.462;2022-07-29T11:46:54;24.70;90.30
49042;DHT22;34859;51.608;11.462;2022-07-29T11:49:44;24.70;90.80
49042;DHT22;34859;51.608;11.462;2022-07-29T11:52:47;24.80;90.80
49042;DHT22;34859;51.608;11.462;2022-07-29T11:55:32;24.80;90.90
49042;DHT22;34859;51.608;11.462;2022-07-29T11:58:22;24.90;90.60
49042;DHT22;34859;51.608;11.462;2022-07-29T12:01:06;25.00;90.90
49042;DHT22;34859;51.608;11.462;2022-07-29T12:04:05;25.00;91.40
49042;DHT22;34859;51.608;11.462;2022-07-29T12:06:51;25.10;90.80
49042;DHT22;34859;51.608;11.462;2022-07-29T12:09:36;25.20;91.60
49042;DHT22;34859;51.608;11.462;2022-07-29T12:12:20;25.30;90.60
49042;DHT22;34859;51.608;11.462;2022-07-29T12:15:18;25.20;89.40
49042;DHT22;34859;51.608;11.462;2022-07-29T12:18:15;25.30;89.60
49042;DHT22;34859;51.608;11.462;2022-07-29T12:20:59;25.60;91.30
49042;DHT22;34859;51.608;11.462;2022-07-29T12:23:52;25.90;91.80
49042;DHT22;34859;51.608;11.462;2022-07-29T12:26:53;26.10;90.00
49042;DHT22;34859;51.608;11.462;2022-07-29T12:29:37;26.20;88.20
49042;DHT22;34859;51.608;11.462;2022-07-29T12:32:21;26.30;88.70
49042;DHT22;34859;51.608;11.462;2022-07-29T12:35:08;26.40;88.10
49042;DHT22;34859;51.608;11.462;2022-07-29T12:37:53;26.50;87.90
49042;DHT22;34859;51.608;11.462;2022-07-29T12:40:38;26.70;83.50
49042;DHT22;34859;51.608;11.462;2022-07-29T12:43:24;26.60;85.20
49042;DHT22;34859;51.608;11.462;2022-07-29T12:46:14;26.70;85.40
49042;DHT22;34859;51.608;11.462;2022-07-29T12:48:58;26.60;84.50
49042;DHT22;34859;51.608;11.462;2022-07-29T12:51:40;26.60;83.90
49042;DHT22;34859;51.608;11.462;2022-07-29T12:54:24;26.70;82.60
49042;DHT22;34859;51.608;11.462;2022-07-29T12:57:08;26.70;83.40
49042;DHT22;34859;51.608;11.462;2022-07-29T13:00:10;26.70;86.00
49042;DHT22;34859;51.608;11.462;2022-07-29T13:03:00;26.90;85.60
49042;DHT22;34859;51.608;11.462;2022-07-29T13:05:43;27.00;83.80
49042;DHT22;34859;51.608;11.462;2022-07-29T13:08:28;27.00;83.60
49042;DHT22;34859;51.608;11.462;2022-07-29T13:14:52;27.00;82.10
49042;DHT22;34859;51.608;11.462;2022-07-29T13:17:41;27.10;82.90
49042;DHT22;34859;51.608;11.462;2022-07-29T13:20:25;27.10;82.90
49042;DHT22;34859;51.608;11.462;2022-07-29T13:23:09;27.10;80.50
49042;DHT22;34859;51.608;11.462;2022-07-29T13:25:50;27.10;78.50
49042;DHT22;34859;51.608;11.462;2022-07-29T13:28:35;27.20;80.80
49042;DHT22;34859;51.608;11.462;2022-07-29T13:31:19;27.10;80.50
49042;DHT22;34859;51.608;11.462;2022-07-29T13:34:03;27.10;80.50
49042;DHT22;34859;51.608;11.462;2022-07-29T13:36:44;27.10;78.70
49042;DHT22;34859;51.608;11.462;2022-07-29T13:39:28;27.10;77.20
49042;DHT22;34859;51.608;11.462;2022-07-29T13:42:12;27.10;78.50
49042;DHT22;34859;51.608;11.462;2022-07-29T13:44:54;27.10;77.10
49042;DHT22;34859;51.608;11.462;2022-07-29T13:47:38;27.10;79.00
49042;DHT22;34859;51.608;11.462;2022-07-29T13:50:22;27.10;76.80
49042;DHT22;34859;51.608;11.462;2022-07-29T13:53:06;27.10;78.80
49042;DHT22;34859;51.608;11.462;2022-07-29T13:55:50;27.10;76.80
49042;DHT22;34859;51.608;11.462;2022-07-29T13:58:35;27.20;78.30
49042;DHT22;34859;51.608;11.462;2022-07-29T14:01:19;27.30;77.50
49042;DHT22;34859;51.608;11.462;2022-07-29T14:04:03;27.40;77.50
49042;DHT22;34859;51.608;11.462;2022-07-29T14:06:47;27.20;78.00
49042;DHT22;34859;51.608;11.462;2022-07-29T14:09:31;27.00;77.70
49042;DHT22;34859;51.608;11.462;2022-07-29T14:12:15;27.00;78.00
49042;DHT22;34859;51.608;11.462;2022-07-29T14:14:56;27.00;79.50
49042;DHT22;34859;51.608;11.462;2022-07-29T14:17:40;27.00;77.80
49042;DHT22;34859;51.608;11.462;2022-07-29T14:20:24;26.90;77.40
49042;DHT22;34859;51.608;11.462;2022-07-29T14:23:08;26.90;76.90
49042;DHT22;34859;51.608;11.462;2022-07-29T14:25:53;27.00;74.60
49042;DHT22;34859;51.608;11.462;2022-07-29T14:28:36;27.30;77.50
49042;DHT22;34859;51.608;11.462;2022-07-29T14:31:20;27.30;77.40
49042;DHT22;34859;51.608;11.462;2022-07-29T14:34:04;27.10;75.70
49042;DHT22;34859;51.608;11.462;2022-07-29T14:36:48;27.10;75.50
49042;DHT22;34859;51.608;11.462;2022-07-29T14:39:34;27.00;75.70
49042;DHT22;34859;51.608;11.462;2022-07-29T14:42:20;26.90;76.70
49042;DHT22;34859;51.608;11.462;2022-07-29T14:45:08;26.80;76.10
49042;DHT22;34859;51.608;11.462;2022-07-29T14:47:52;26.80;75.20
49042;DHT22;34859;51.608;11.462;2022-07-29T14:50:37;26.80;75.10
49042;DHT22;34859;51.608;11.462;2022-07-29T14:53:21;26.90;73.20
49042;DHT22;34859;51.608;11.462;2022-07-29T14:56:05;27.00;76.50
49042;DHT22;34859;51.608;11.462;2022-07-29T14:58:50;27.20;74.40
49042;DHT22;34859;51.608;11.462;2022-07-29T15:01:34;27.50;73.80
49042;DHT22;34859;51.608;11.462;2022-07-29T15:04:18;27.40;71.10
49042;DHT22;34859;51.608;11.462;2022-07-29T15:07:02;27.10;73.40
49042;DHT22;34859;51.608;11.462;2022-07-29T15:09:46;27.00;72.30
49042;DHT22;34859;51.608;11.462;2022-07-29T15:12:31;26.80;73.30
49042;DHT22;34859;51.608;11.462;2022-07-29T15:15:16;26.60;74.00
49042;DHT22;34859;51.608;11.462;2022-07-29T15:18:00;26.60;74.60
49042;DHT22;34859;51.608;11.462;2022-07-29T15:20:44;26.50;74.70
49042;DHT22;34859;51.608;11.462;2022-07-29T15:23:31;26.50;75.10
49042;DHT22;34859;51.608;11.462;2022-07-29T15:26:15;26.50;75.70
49042;DHT22;34859;51.608;11.462;2022-07-29T15:29:00;26.30;75.00
49042;DHT22;34859;51.608;11.462;2022-07-29T15:31:44;26.20;74.70
49042;DHT22;34859;51.608;11.462;2022-07-29T15:34:28;26.10;74.50
49042;DHT22;34859;51.608;11.462;2022-07-29T15:37:10;26.20;74.50
49042;DHT22;34859;51.608;11.462;2022-07-29T15:39:55;26.40;73.20
49042;DHT22;34859;51.608;11.462;2022-07-29T15:42:39;26.50;73.90
49042;DHT22;34859;51.608;11.462;2022-07-29T15:45:23;26.50;74.50
49042;DHT22;34859;51.608;11.462;2022-07-29T15:48:09;26.50;74.70
49042;DHT22;34859;51.608;11.462;2022-07-29T15:50:53;26.50;74.40
49042;DHT22;34859;51.608;11.462;2022-07-29T15:53:37;26.40;75.00
49042;DHT22;34859;51.608;11.462;2022-07-29T15:56:21;26.40;74.20
49042;DHT22;34859;51.608;11.462;2022-07-29T15:59:06;26.40;76.90
49042;DHT22;34859;51.608;11.462;2022-07-29T16:01:50;26.30;76.30
49042;DHT22;34859;51.608;11.462;2022-07-29T16:04:34;26.30;75.30
49042;DHT22;34859;51.608;11.462;2022-07-29T16:07:18;26.30;77.10
49042;DHT22;34859;51.608;11.462;2022-07-29T16:10:03;26.30;76.10
49042;DHT22;34859;51.608;11.462;2022-07-29T16:12:47;26.30;75.50
49042;DHT22;34859;51.608;11.462;2022-07-29T16:15:31;26.30;76.00
49042;DHT22;34859;51.608;11.462;2022-07-29T16:18:15;26.50;76.30
49042;DHT22;34859;51.608;11.462;2022-07-29T16:20:59;26.60;75.90
49042;DHT22;34859;51.608;11.462;2022-07-29T16:23:43;26.80;75.20
49042;DHT22;34859;51.608;11.462;2022-07-29T16:26:28;26.80;76.40
49042;DHT22;34859;51.608;11.462;2022-07-29T16:29:12;26.80;74.20
49042;DHT22;34859;51.608;11.462;2022-07-29T16:31:56;26.80;73.70
49042;DHT22;34859;51.608;11.462;2022-07-29T16:34:40;26.90;75.10
49042;DHT22;34859;51.608;11.462;2022-07-29T16:37:24;27.00;73.30
49042;DHT22;34859;51.608;11.462;2022-07-29T16:40:08;27.00;72.90
49042;DHT22;34859;51.608;11.462;2022-07-29T16:42:52;27.10;73.20
49042;DHT22;34859;51.608;11.462;2022-07-29T16:45:37;27.00;74.00
49042;DHT22;34859;51.608;11.462;2022-07-29T16:48:21;26.90;74.10
49042;DHT22;34859;51.608;11.462;2022-07-29T16:51:06;26.80;73.10
49042;DHT22;34859;51.608;11.462;2022-07-29T16:53:50;26.80;73.20
49042;DHT22;34859;51.608;11.462;2022-07-29T16:56:34;26.60;73.30
49042;DHT22;34859;51.608;11.462;2022-07-29T16:59:19;26.60;74.50
49042;DHT22;34859;51.608;11.462;2022-07-29T17:02:00;26.50;73.30
49042;DHT22;34859;51.608;11.462;2022-07-29T17:04:47;26.50;73.10
49042;DHT22;34859;51.608;11.462;2022-07-29T17:07:31;26.40;73.00
49042;DHT22;34859;51.608;11.462;2022-07-29T17:10:15;26.30;73.20
49042;DHT22;34859;51.608;11.462;2022-07-29T17:12:59;26.30;73.50
49042;DHT22;34859;51.608;11.462;2022-07-29T17:15:43;26.20;73.50
49042;DHT22;34859;51.608;11.462;2022-07-29T17:18:27;26.10;73.20
49042;DHT22;34859;51.608;11.462;2022-07-29T17:21:11;26.00;75.10
49042;DHT22;34859;51.608;11.462;2022-07-29T17:23:54;25.90;73.50
49042;DHT22;34859;51.608;11.462;2022-07-29T17:26:39;25.80;74.10
49042;DHT22;34859;51.608;11.462;2022-07-29T17:29:26;25.70;75.00
49042;DHT22;34859;51.608;11.462;2022-07-29T17:32:10;25.70;74.20
49042;DHT22;34859;51.608;11.462;2022-07-29T17:34:55;25.60;74.40
49042;DHT22;34859;51.608;11.462;2022-07-29T17:37:39;25.50;74.60
49042;DHT22;34859;51.608;11.462;2022-07-29T17:40:20;25.50;76.90
49042;DHT22;34859;51.608;11.462;2022-07-29T17:43:01;25.40;77.90